sensor_id;sensor_type;location;lat;lon;timestamp;P1;durP1;ratioP1;P2;durP2;ratioP2
2123;SDS011;1068;52.460;13.528;2023-03-04T00:01:01;27.30;;;17.08;;
2123;SDS011;1068;52.460;13.528;2023-03-04T00:03:28;25.73;;;15.80;;
2123;SDS011;1068;52.460;13.528;2023-03-04T00:05:55;24.95;;;15.20;;
2123;SDS011;1068;52.460;13.528;2023-03-04T00:08:22;22.25;;;14.93;;
2123;SDS011;1068;52.460;13.528;2023-03-04T00:10:51;31.77;;;18.13;;
2123;SDS011;1068;52.460;13.528;2023-03-04T00:13:18;23.98;;;15.13;;
2123;SDS011;1068;52.460;13.528;2023-03-04T00:15:46;25.00;;;16.10;;
2123;SDS011;1068;52.460;13.528;2023-03-04T00:18:13;27.48;;;17.98;;
2123;SDS011;1068;52.460;13.528;2023-03-04T00:20:40;23.10;;;15.80;;
2123;SDS011;1068;52.460;13.528;2023-03-04T00:23:07;28.52;;;16.90;;
2123;SDS011;1068;52.460;13.528;2023-03-04T00:25:34;24.83;;;16.27;;
2123;SDS011;1068;52.460;13.528;2023-03-04T00:28:02;27.08;;;16.00;;
2123;SDS011;1068;52.460;13.528;2023-03-04T00:30:30;24.60;;;15.98;;
2123;SDS011;1068;52.460;13.528;2023-03-04T00:32:57;25.55;;;15.18;;
2123;SDS011;1068;52.460;13.528;2023-03-04T00:35:24;26.73;;;16.85;;
2123;SDS011;1068;52.460;13.528;2023-03-04T00:37:51;22.70;;;14.90;;
2123;SDS011;1068;52.460;13.528;2023-03-04T00:40:18;23.42;;;16.42;;
2123;SDS011;1068;52.460;13.528;2023-03-04T00:42:45;25.52;;;15.98;;
2123;SDS011;1068;52.460;13.528;2023-03-04T00:45:13;31.38;;;17.23;;
2123;SDS011;1068;52.460;13.528;2023-03-04T00:47:40;27.45;;;16.00;;
2123;SDS011;1068;52.460;13.528;2023-03-04T00:50:08;24.63;;;16.17;;
2123;SDS011;1068;52.460;13.528;2023-03-04T00:52:35;28.95;;;16.77;;
2123;SDS011;1068;52.460;13.528;2023-03-04T00:55:02;28.30;;;15.02;;
2123;SDS011;1068;52.460;13.528;2023-03-04T00:57:30;26.42;;;16.35;;
2123;SDS011;1068;52.460;13.528;2023-03-04T00:59:56;26.98;;;14.52;;
2123;SDS011;1068;52.460;13.528;2023-03-04T01:02:25;26.17;;;15.90;;
2123;SDS011;1068;52.460;13.528;2023-03-04T01:04:52;29.40;;;16.75;;
2123;SDS011;1068;52.460;13.528;2023-03-04T01:07:19;28.55;;;16.92;;
2123;SDS011;1068;52.460;13.528;2023-03-04T01:09:46;30.00;;;17.45;;
2123;SDS011;1068;52.460;13.528;2023-03-04T01:12:13;26.85;;;15.70;;
2123;SDS011;1068;52.460;13.528;2023-03-04T01:14:40;24.90;;;15.25;;
2123;SDS011;1068;52.460;13.528;2023-03-04T01:17:07;24.00;;;14.80;;
2123;SDS011;1068;52.460;13.528;2023-03-04T01:19:37;22.05;;;14.32;;
2123;SDS011;1068;52.460;13.528;2023-03-04T01:22:04;26.30;;;14.48;;
2123;SDS011;1068;52.460;13.528;2023-03-04T01:24:31;27.08;;;14.43;;
2123;SDS011;1068;52.460;13.528;2023-03-04T01:26:58;26.23;;;13.32;;
2123;SDS011;1068;52.460;13.528;2023-03-04T01:29:25;26.50;;;14.50;;
2123;SDS011;1068;52.460;13.528;2023-03-04T01:31:52;22.42;;;12.25;;
2123;SDS011;1068;52.460;13.528;2023-03-04T01:34:19;28.98;;;12.32;;
2123;SDS011;1068;52.460;13.528;2023-03-04T01:36:47;27.40;;;13.27;;
2123;SDS011;1068;52.460;13.528;2023-03-04T01:39:14;25.58;;;12.98;;
2123;SDS011;1068;52.460;13.528;2023-03-04T01:41:41;25.27;;;13.20;;
2123;SDS011;1068;52.460;13.528;2023-03-04T01:44:08;25.00;;;13.48;;
2123;SDS011;1068;52.460;13.528;2023-03-04T01:46:36;18.98;;;12.13;;
2123;SDS011;1068;52.460;13.528;2023-03-04T01:49:05;18.98;;;10.50;;
2123;SDS011;1068;52.460;13.528;2023-03-04T01:51:32;26.05;;;12.90;;
2123;SDS011;1068;52.460;13.528;2023-03-04T01:54:00;18.17;;;10.75;;
2123;SDS011;1068;52.460;13.528;2023-03-04T01:56:28;28.58;;;12.27;;
2123;SDS011;1068;52.460;13.528;2023-03-04T01:59:08;25.50;;;12.20;;
2123;SDS011;1068;52.460;13.528;2023-03-04T02:01:37;20.00;;;11.15;;
2123;SDS011;1068;52.460;13.528;2023-03-04T02:04:04;30.30;;;12.18;;
2123;SDS011;1068;52.460;13.528;2023-03-04T02:06:32;17.85;;;12.38;;
2123;SDS011;1068;52.460;13.528;2023-03-04T02:09:01;26.90;;;11.60;;
2123;SDS011;1068;52.460;13.528;2023-03-04T02:11:28;22.90;;;12.25;;
2123;SDS011;1068;52.460;13.528;2023-03-04T02:13:55;23.17;;;11.93;;
2123;SDS011;1068;52.460;13.528;2023-03-04T02:16:22;26.70;;;12.27;;
2123;SDS011;1068;52.460;13.528;2023-03-04T02:18:49;23.55;;;11.80;;
2123;SDS011;1068;52.460;13.528;2023-03-04T02:21:17;22.42;;;10.90;;
2123;SDS011;1068;52.460;13.528;2023-03-04T02:23:45;17.75;;;10.40;;
2123;SDS011;1068;52.460;13.528;2023-03-04T02:26:17;27.35;;;11.05;;
2123;SDS011;1068;52.460;13.528;2023-03-04T02:28:46;18.52;;;9.85;;
2123;SDS011;1068;52.460;13.528;2023-03-04T02:31:18;21.02;;;9.38;;
2123;SDS011;1068;52.460;13.528;2023-03-04T02:33:46;23.52;;;8.95;;
2123;SDS011;1068;52.460;13.528;2023-03-04T02:36:13;16.55;;;8.75;;
2123;SDS011;1068;52.460;13.528;2023-03-04T02:38:40;16.17;;;8.52;;
2123;SDS011;1068;52.460;13.528;2023-03-04T02:41:08;21.33;;;9.77;;
2123;SDS011;1068;52.460;13.528;2023-03-04T02:43:39;19.88;;;9.65;;
2123;SDS011;1068;52.460;13.528;2023-03-04T02:46:07;21.07;;;8.60;;
2123;SDS011;1068;52.460;13.528;2023-03-04T02:48:36;18.15;;;7.80;;
2123;SDS011;1068;52.460;13.528;2023-03-04T02:51:03;16.88;;;8.20;;
2123;SDS011;1068;52.460;13.528;2023-03-04T02:53:30;19.25;;;7.85;;
2123;SDS011;1068;52.460;13.528;2023-03-04T02:55:57;27.55;;;7.93;;
2123;SDS011;1068;52.460;13.528;2023-03-04T02:58:24;14.00;;;7.70;;
2123;SDS011;1068;52.460;13.528;2023-03-04T03:00:52;20.90;;;7.72;;
2123;SDS011;1068;52.460;13.528;2023-03-04T03:03:19;20.13;;;7.28;;
2123;SDS011;1068;52.460;13.528;2023-03-04T03:05:46;17.83;;;7.35;;
2123;SDS011;1068;52.460;13.528;2023-03-04T03:08:13;15.77;;;8.30;;
2123;SDS011;1068;52.460;13.528;2023-03-04T03:10:40;15.33;;;8.00;;
2123;SDS011;1068;52.460;13.528;2023-03-04T03:13:07;12.05;;;6.45;;
2123;SDS011;1068;52.460;13.528;2023-03-04T03:15:34;24.13;;;6.25;;
2123;SDS011;1068;52.460;13.528;2023-03-04T03:18:07;14.02;;;6.55;;
2123;SDS011;1068;52.460;13.528;2023-03-04T03:20:34;18.38;;;7.75;;
2123;SDS011;1068;52.460;13.528;2023-03-04T03:23:01;11.57;;;6.70;;
2123;SDS011;1068;52.460;13.528;2023-03-04T03:25:28;19.38;;;6.70;;
2123;SDS011;1068;52.460;13.528;2023-03-04T03:27:55;27.83;;;8.40;;
2123;SDS011;1068;52.460;13.528;2023-03-04T03:30:22;11.77;;;7.20;;
2123;SDS011;1068;52.460;13.528;2023-03-04T03:32:49;12.15;;;6.55;;
2123;SDS011;1068;52.460;13.528;2023-03-04T03:35:18;15.35;;;6.95;;
2123;SDS011;1068;52.460;13.528;2023-03-04T03:37:45;15.30;;;7.32;;
2123;SDS011;1068;52.460;13.528;2023-03-04T03:40:13;17.20;;;6.95;;
2123;SDS011;1068;52.460;13.528;2023-03-04T03:42:40;14.63;;;7.30;;
2123;SDS011;1068;52.460;13.528;2023-03-04T03:45:07;16.23;;;6.60;;
2123;SDS011;1068;52.460;13.528;2023-03-04T03:47:34;17.50;;;7.10;;
2123;SDS011;1068;52.460;13.528;2023-03-04T03:50:02;14.30;;;7.03;;
2123;SDS011;1068;52.460;13.528;2023-03-04T03:52:30;16.48;;;7.30;;
2123;SDS011;1068;52.460;13.528;2023-03-04T03:54:57;13.00;;;6.45;;
2123;SDS011;1068;52.460;13.528;2023-03-04T03:57:25;17.33;;;7.75;;
2123;SDS011;1068;52.460;13.528;2023-03-04T03:59:52;21.13;;;7.35;;
2123;SDS011;1068;52.460;13.528;2023-03-04T04:02:19;14.77;;;7.43;;
2123;SDS011;1068;52.460;13.528;2023-03-04T04:04:47;14.32;;;6.85;;
2123;SDS011;1068;52.460;13.528;2023-03-04T04:07:14;20.13;;;7.78;;
2123;SDS011;1068;52.460;13.528;2023-03-04T04:09:42;14.18;;;7.13;;
2123;SDS011;1068;52.460;13.528;2023-03-04T04:12:10;16.88;;;6.45;;
2123;SDS011;1068;52.460;13.528;2023-03-04T04:14:38;14.57;;;6.93;;
2123;SDS011;1068;52.460;13.528;2023-03-04T04:17:05;17.35;;;7.93;;
2123;SDS011;1068;52.460;13.528;2023-03-04T04:19:32;14.52;;;6.35;;
2123;SDS011;1068;52.460;13.528;2023-03-04T04:22:00;13.57;;;5.38;;
2123;SDS011;1068;52.460;13.528;2023-03-04T04:24:27;18.88;;;6.75;;
2123;SDS011;1068;52.460;13.528;2023-03-04T04:26:55;11.05;;;5.30;;
2123;SDS011;1068;52.460;13.528;2023-03-04T04:29:22;15.30;;;6.72;;
2123;SDS011;1068;52.460;13.528;2023-03-04T04:31:49;13.18;;;6.10;;
2123;SDS011;1068;52.460;13.528;2023-03-04T04:34:16;19.05;;;6.60;;
2123;SDS011;1068;52.460;13.528;2023-03-04T04:36:43;13.40;;;5.55;;
2123;SDS011;1068;52.460;13.528;2023-03-04T04:39:10;19.00;;;5.95;;
2123;SDS011;1068;52.460;13.528;2023-03-04T04:41:38;10.57;;;5.38;;
2123;SDS011;1068;52.460;13.528;2023-03-04T04:44:07;13.10;;;5.67;;
2123;SDS011;1068;52.460;13.528;2023-03-04T04:46:34;14.57;;;5.75;;
2123;SDS011;1068;52.460;13.528;2023-03-04T04:49:02;12.68;;;5.53;;
2123;SDS011;1068;52.460;13.528;2023-03-04T04:51:29;11.60;;;5.37;;
2123;SDS011;1068;52.460;13.528;2023-03-04T04:53:57;16.77;;;6.57;;
2123;SDS011;1068;52.460;13.528;2023-03-04T04:56:24;17.38;;;6.57;;
2123;SDS011;1068;52.460;13.528;2023-03-04T04:58:52;15.32;;;5.68;;
2123;SDS011;1068;52.460;13.528;2023-03-04T05:01:20;21.85;;;8.02;;
2123;SDS011;1068;52.460;13.528;2023-03-04T05:03:48;12.90;;;5.32;;
2123;SDS011;1068;52.460;13.528;2023-03-04T05:06:17;15.20;;;5.28;;
2123;SDS011;1068;52.460;13.528;2023-03-04T05:08:44;14.90;;;6.87;;
2123;SDS011;1068;52.460;13.528;2023-03-04T05:11:11;15.30;;;5.77;;
2123;SDS011;1068;52.460;13.528;2023-03-04T05:13:38;18.17;;;6.82;;
2123;SDS011;1068;52.460;13.528;2023-03-04T05:16:06;12.35;;;5.13;;
2123;SDS011;1068;52.460;13.528;2023-03-04T05:18:34;16.27;;;4.90;;
2123;SDS011;1068;52.460;13.528;2023-03-04T05:21:02;12.30;;;4.90;;
2123;SDS011;1068;52.460;13.528;2023-03-04T05:23:30;15.45;;;7.07;;
2123;SDS011;1068;52.460;13.528;2023-03-04T05:25:57;14.18;;;4.25;;
2123;SDS011;1068;52.460;13.528;2023-03-04T05:28:25;12.20;;;4.43;;
2123;SDS011;1068;52.460;13.528;2023-03-04T05:30:52;12.40;;;5.40;;
2123;SDS011;1068;52.460;13.528;2023-03-04T05:33:19;15.55;;;5.03;;
2123;SDS011;1068;52.460;13.528;2023-03-04T05:35:47;15.40;;;4.10;;
2123;SDS011;1068;52.460;13.528;2023-03-04T05:38:15;10.75;;;5.05;;
2123;SDS011;1068;52.460;13.528;2023-03-04T05:40:42;9.63;;;4.45;;
2123;SDS011;1068;52.460;13.528;2023-03-04T05:43:09;11.05;;;4.65;;
2123;SDS011;1068;52.460;13.528;2023-03-04T05:45:37;8.70;;;4.53;;
2123;SDS011;1068;52.460;13.528;2023-03-04T05:48:04;11.77;;;3.88;;
2123;SDS011;1068;52.460;13.528;2023-03-04T05:50:31;10.35;;;4.13;;
2123;SDS011;1068;52.460;13.528;2023-03-04T05:53:00;6.85;;;4.03;;
2123;SDS011;1068;52.460;13.528;2023-03-04T05:55:26;9.60;;;3.80;;
2123;SDS011;1068;52.460;13.528;2023-03-04T05:57:54;10.95;;;4.03;;
2123;SDS011;1068;52.460;13.528;2023-03-04T06:00:21;10.48;;;3.88;;
2123;SDS011;1068;52.460;13.528;2023-03-04T06:02:48;9.17;;;4.10;;
2123;SDS011;1068;52.460;13.528;2023-03-04T06:05:15;9.27;;;3.33;;
2123;SDS011;1068;52.460;13.528;2023-03-04T06:07:42;6.63;;;3.20;;
2123;SDS011;1068;52.460;13.528;2023-03-04T06:10:12;7.70;;;4.23;;
2123;SDS011;1068;52.460;13.528;2023-03-04T06:12:39;8.43;;;3.13;;
2123;SDS011;1068;52.460;13.528;2023-03-04T06:15:06;10.10;;;3.35;;
2123;SDS011;1068;52.460;13.528;2023-03-04T06:17:34;10.03;;;3.20;;
2123;SDS011;1068;52.460;13.528;2023-03-04T06:20:02;13.17;;;3.20;;
2123;SDS011;1068;52.460;13.528;2023-03-04T06:22:30;9.00;;;3.20;;
2123;SDS011;1068;52.460;13.528;2023-03-04T06:24:57;7.63;;;3.22;;
2123;SDS011;1068;52.460;13.528;2023-03-04T06:27:25;9.73;;;3.37;;
2123;SDS011;1068;52.460;13.528;2023-03-04T06:29:52;7.43;;;3.50;;
2123;SDS011;1068;52.460;13.528;2023-03-04T06:32:20;10.40;;;3.30;;
2123;SDS011;1068;52.460;13.528;2023-03-04T06:34:47;11.70;;;3.57;;
2123;SDS011;1068;52.460;13.528;2023-03-04T06:37:14;7.87;;;3.10;;
2123;SDS011;1068;52.460;13.528;2023-03-04T06:39:41;9.60;;;3.15;;
2123;SDS011;1068;52.460;13.528;2023-03-04T06:42:08;6.47;;;2.80;;
2123;SDS011;1068;52.460;13.528;2023-03-04T06:44:36;11.88;;;3.50;;
2123;SDS011;1068;52.460;13.528;2023-03-04T06:47:03;11.30;;;4.10;;
2123;SDS011;1068;52.460;13.528;2023-03-04T06:49:30;6.90;;;3.20;;
2123;SDS011;1068;52.460;13.528;2023-03-04T06:51:57;13.20;;;3.40;;
2123;SDS011;1068;52.460;13.528;2023-03-04T06:54:24;6.25;;;3.35;;
2123;SDS011;1068;52.460;13.528;2023-03-04T06:56:51;10.10;;;3.60;;
2123;SDS011;1068;52.460;13.528;2023-03-04T06:59:18;8.25;;;3.35;;
2123;SDS011;1068;52.460;13.528;2023-03-04T07:01:46;13.55;;;3.80;;
2123;SDS011;1068;52.460;13.528;2023-03-04T07:04:13;6.63;;;3.20;;
2123;SDS011;1068;52.460;13.528;2023-03-04T07:06:40;10.70;;;3.27;;
2123;SDS011;1068;52.460;13.528;2023-03-04T07:09:07;17.87;;;3.50;;
2123;SDS011;1068;52.460;13.528;2023-03-04T07:11:34;8.70;;;3.63;;
2123;SDS011;1068;52.460;13.528;2023-03-04T07:14:01;5.20;;;3.10;;
2123;SDS011;1068;52.460;13.528;2023-03-04T07:16:28;5.88;;;2.95;;
2123;SDS011;1068;52.460;13.528;2023-03-04T07:18:57;7.73;;;3.50;;
2123;SDS011;1068;52.460;13.528;2023-03-04T07:21:24;11.73;;;3.70;;
2123;SDS011;1068;52.460;13.528;2023-03-04T07:23:51;7.25;;;3.50;;
2123;SDS011;1068;52.460;13.528;2023-03-04T07:26:18;8.37;;;3.90;;
2123;SDS011;1068;52.460;13.528;2023-03-04T07:28:45;7.37;;;3.57;;
2123;SDS011;1068;52.460;13.528;2023-03-04T07:31:12;9.00;;;4.40;;
2123;SDS011;1068;52.460;13.528;2023-03-04T07:33:43;12.45;;;6.03;;
2123;SDS011;1068;52.460;13.528;2023-03-04T07:36:11;11.47;;;3.97;;
2123;SDS011;1068;52.460;13.528;2023-03-04T07:38:41;10.27;;;4.03;;
2123;SDS011;1068;52.460;13.528;2023-03-04T07:41:08;8.27;;;3.90;;
2123;SDS011;1068;52.460;13.528;2023-03-04T07:43:36;6.90;;;3.45;;
2123;SDS011;1068;52.460;13.528;2023-03-04T07:46:03;17.08;;;4.85;;
2123;SDS011;1068;52.460;13.528;2023-03-04T07:48:30;8.65;;;3.55;;
2123;SDS011;1068;52.460;13.528;2023-03-04T07:51:04;9.67;;;4.77;;
2123;SDS011;1068;52.460;13.528;2023-03-04T07:53:33;10.05;;;3.83;;
2123;SDS011;1068;52.460;13.528;2023-03-04T07:56:00;5.35;;;3.58;;
2123;SDS011;1068;52.460;13.528;2023-03-04T07:58:27;6.30;;;3.58;;
2123;SDS011;1068;52.460;13.528;2023-03-04T08:00:54;8.10;;;4.30;;
2123;SDS011;1068;52.460;13.528;2023-03-04T08:03:21;5.93;;;3.83;;
2123;SDS011;1068;52.460;13.528;2023-03-04T08:05:49;14.07;;;5.17;;
2123;SDS011;1068;52.460;13.528;2023-03-04T08:08:16;13.13;;;4.43;;
2123;SDS011;1068;52.460;13.528;2023-03-04T08:10:44;9.60;;;4.57;;
2123;SDS011;1068;52.460;13.528;2023-03-04T08:13:11;7.97;;;4.03;;
2123;SDS011;1068;52.460;13.528;2023-03-04T08:15:39;6.77;;;4.13;;
2123;SDS011;1068;52.460;13.528;2023-03-04T08:18:06;3.37;;;3.07;;
2123;SDS011;1068;52.460;13.528;2023-03-04T08:20:33;5.67;;;3.93;;
2123;SDS011;1068;52.460;13.528;2023-03-04T08:23:01;6.83;;;5.10;;
2123;SDS011;1068;52.460;13.528;2023-03-04T08:25:28;6.60;;;3.80;;
2123;SDS011;1068;52.460;13.528;2023-03-04T08:27:57;7.60;;;3.67;;
2123;SDS011;1068;52.460;13.528;2023-03-04T08:30:24;6.87;;;3.87;;
2123;SDS011;1068;52.460;13.528;2023-03-04T08:32:51;5.83;;;4.17;;
2123;SDS011;1068;52.460;13.528;2023-03-04T08:35:18;5.17;;;3.83;;
2123;SDS011;1068;52.460;13.528;2023-03-04T08:37:45;8.05;;;4.30;;
2123;SDS011;1068;52.460;13.528;2023-03-04T08:40:12;4.03;;;3.47;;
2123;SDS011;1068;52.460;13.528;2023-03-04T08:42:40;5.93;;;3.53;;
2123;SDS011;1068;52.460;13.528;2023-03-04T08:45:09;6.27;;;4.13;;
2123;SDS011;1068;52.460;13.528;2023-03-04T08:47:36;7.17;;;4.50;;
2123;SDS011;1068;52.460;13.528;2023-03-04T08:50:05;5.87;;;3.20;;
2123;SDS011;1068;52.460;13.528;2023-03-04T08:52:32;4.73;;;4.00;;
2123;SDS011;1068;52.460;13.528;2023-03-04T08:54:59;3.93;;;3.63;;
2123;SDS011;1068;52.460;13.528;2023-03-04T08:57:26;4.80;;;3.07;;
2123;SDS011;1068;52.460;13.528;2023-03-04T08:59:53;7.77;;;3.73;;
2123;SDS011;1068;52.460;13.528;2023-03-04T09:02:22;4.70;;;3.07;;
2123;SDS011;1068;52.460;13.528;2023-03-04T09:04:49;5.23;;;2.83;;
2123;SDS011;1068;52.460;13.528;2023-03-04T09:07:16;5.97;;;3.10;;
2123;SDS011;1068;52.460;13.528;2023-03-04T09:09:43;5.70;;;2.50;;
2123;SDS011;1068;52.460;13.528;2023-03-04T09:12:10;2.93;;;2.63;;
2123;SDS011;1068;52.460;13.528;2023-03-04T09:14:37;3.27;;;2.53;;
2123;SDS011;1068;52.460;13.528;2023-03-04T09:17:04;7.37;;;3.00;;
2123;SDS011;1068;52.460;13.528;2023-03-04T09:19:32;5.00;;;2.40;;
2123;SDS011;1068;52.460;13.528;2023-03-04T09:21:59;3.20;;;2.30;;
2123;SDS011;1068;52.460;13.528;2023-03-04T09:24:26;4.17;;;2.30;;
2123;SDS011;1068;52.460;13.528;2023-03-04T09:26:53;7.43;;;2.57;;
2123;SDS011;1068;52.460;13.528;2023-03-04T09:29:21;5.80;;;3.37;;
2123;SDS011;1068;52.460;13.528;2023-03-04T09:31:48;5.17;;;2.90;;
2123;SDS011;1068;52.460;13.528;2023-03-04T09:34:15;9.93;;;2.53;;
2123;SDS011;1068;52.460;13.528;2023-03-04T09:36:44;2.93;;;2.40;;
2123;SDS011;1068;52.460;13.528;2023-03-04T09:39:11;4.60;;;2.60;;
2123;SDS011;1068;52.460;13.528;2023-03-04T09:41:39;6.47;;;2.17;;
2123;SDS011;1068;52.460;13.528;2023-03-04T09:44:11;4.27;;;2.13;;
2123;SDS011;1068;52.460;13.528;2023-03-04T09:46:40;9.83;;;2.73;;
2123;SDS011;1068;52.460;13.528;2023-03-04T09:49:09;5.40;;;2.03;;
2123;SDS011;1068;52.460;13.528;2023-03-04T09:51:40;3.77;;;1.80;;
2123;SDS011;1068;52.460;13.528;2023-03-04T09:54:13;4.13;;;1.80;;
2123;SDS011;1068;52.460;13.528;2023-03-04T09:56:41;5.93;;;1.60;;
2123;SDS011;1068;52.460;13.528;2023-03-04T09:59:10;5.13;;;1.67;;
2123;SDS011;1068;52.460;13.528;2023-03-04T10:01:41;5.57;;;1.90;;
2123;SDS011;1068;52.460;13.528;2023-03-04T10:04:11;3.23;;;1.73;;
2123;SDS011;1068;52.460;13.528;2023-03-04T10:06:40;5.40;;;1.73;;
2123;SDS011;1068;52.460;13.528;2023-03-04T10:09:10;4.03;;;1.73;;
2123;SDS011;1068;52.460;13.528;2023-03-04T10:11:39;8.07;;;2.17;;
2123;SDS011;1068;52.460;13.528;2023-03-04T10:14:12;7.53;;;1.80;;
2123;SDS011;1068;52.460;13.528;2023-03-04T10:16:41;11.33;;;2.10;;
2123;SDS011;1068;52.460;13.528;2023-03-04T10:19:20;3.73;;;1.90;;
2123;SDS011;1068;52.460;13.528;2023-03-04T10:21:50;5.20;;;1.63;;
2123;SDS011;1068;52.460;13.528;2023-03-04T10:24:19;6.17;;;1.67;;
2123;SDS011;1068;52.460;13.528;2023-03-04T10:26:50;5.37;;;1.60;;
2123;SDS011;1068;52.460;13.528;2023-03-04T10:29:18;4.57;;;2.00;;
2123;SDS011;1068;52.460;13.528;2023-03-04T10:31:46;5.00;;;1.80;;
2123;SDS011;1068;52.460;13.528;2023-03-04T10:34:14;2.93;;;1.57;;
2123;SDS011;1068;52.460;13.528;2023-03-04T10:36:46;9.60;;;1.80;;
2123;SDS011;1068;52.460;13.528;2023-03-04T10:39:17;6.70;;;2.17;;
2123;SDS011;1068;52.460;13.528;2023-03-04T10:41:53;8.27;;;1.87;;
2123;SDS011;1068;52.460;13.528;2023-03-04T10:44:21;6.33;;;2.13;;
2123;SDS011;1068;52.460;13.528;2023-03-04T10:46:49;6.50;;;2.00;;
2123;SDS011;1068;52.460;13.528;2023-03-04T10:49:16;14.80;;;3.20;;
2123;SDS011;1068;52.460;13.528;2023-03-04T10:51:44;3.53;;;1.73;;
2123;SDS011;1068;52.460;13.528;2023-03-04T10:54:16;8.80;;;1.90;;
2123;SDS011;1068;52.460;13.528;2023-03-04T10:56:53;4.83;;;1.53;;
2123;SDS011;1068;52.460;13.528;2023-03-04T10:59:31;3.60;;;1.90;;
2123;SDS011;1068;52.460;13.528;2023-03-04T11:01:59;5.00;;;1.80;;
2123;SDS011;1068;52.460;13.528;2023-03-04T11:04:30;2.27;;;2.07;;
2123;SDS011;1068;52.460;13.528;2023-03-04T11:06:58;5.53;;;1.90;;
2123;SDS011;1068;52.460;13.528;2023-03-04T11:09:26;6.17;;;1.93;;
2123;SDS011;1068;52.460;13.528;2023-03-04T11:11:55;12.33;;;1.80;;
2123;SDS011;1068;52.460;13.528;2023-03-04T11:14:25;3.90;;;2.40;;
2123;SDS011;1068;52.460;13.528;2023-03-04T11:16:54;8.77;;;1.80;;
2123;SDS011;1068;52.460;13.528;2023-03-04T11:19:21;6.33;;;2.40;;
2123;SDS011;1068;52.460;13.528;2023-03-04T11:21:50;9.93;;;2.67;;
2123;SDS011;1068;52.460;13.528;2023-03-04T11:24:18;7.97;;;1.97;;
2123;SDS011;1068;52.460;13.528;2023-03-04T11:26:50;4.80;;;1.80;;
2123;SDS011;1068;52.460;13.528;2023-03-04T11:29:19;6.23;;;1.90;;
2123;SDS011;1068;52.460;13.528;2023-03-04T11:31:49;5.77;;;1.90;;
2123;SDS011;1068;52.460;13.528;2023-03-04T11:34:19;4.90;;;2.50;;
2123;SDS011;1068;52.460;13.528;2023-03-04T11:36:51;8.93;;;2.30;;
2123;SDS011;1068;52.460;13.528;2023-03-04T11:39:23;7.33;;;2.70;;
2123;SDS011;1068;52.460;13.528;2023-03-04T11:41:53;11.57;;;2.10;;
2123;SDS011;1068;52.460;13.528;2023-03-04T11:44:23;9.07;;;2.30;;
2123;SDS011;1068;52.460;13.528;2023-03-04T11:46:53;11.37;;;3.10;;
2123;SDS011;1068;52.460;13.528;2023-03-04T11:49:37;4.60;;;2.00;;
2123;SDS011;1068;52.460;13.528;2023-03-04T11:52:07;8.17;;;2.40;;
2123;SDS011;1068;52.460;13.528;2023-03-04T11:54:37;15.93;;;2.97;;
2123;SDS011;1068;52.460;13.528;2023-03-04T11:57:11;9.07;;;2.17;;
2123;SDS011;1068;52.460;13.528;2023-03-04T11:59:51;8.50;;;2.40;;
2123;SDS011;1068;52.460;13.528;2023-03-04T12:02:23;8.63;;;2.43;;
2123;SDS011;1068;52.460;13.528;2023-03-04T12:07:53;9.30;;;3.27;;
2123;SDS011;1068;52.460;13.528;2023-03-04T12:10:24;10.87;;;2.70;;
2123;SDS011;1068;52.460;13.528;2023-03-04T12:13:11;11.80;;;2.70;;
2123;SDS011;1068;52.460;13.528;2023-03-04T12:15:43;12.70;;;3.40;;
2123;SDS011;1068;52.460;13.528;2023-03-04T12:18:17;9.63;;;2.97;;
2123;SDS011;1068;52.460;13.528;2023-03-04T12:20:50;8.73;;;2.47;;
2123;SDS011;1068;52.460;13.528;2023-03-04T12:23:24;13.90;;;4.00;;
2123;SDS011;1068;52.460;13.528;2023-03-04T12:25:55;8.30;;;2.70;;
2123;SDS011;1068;52.460;13.528;2023-03-04T12:28:26;9.80;;;2.80;;
2123;SDS011;1068;52.460;13.528;2023-03-04T12:33:43;12.47;;;2.67;;
2123;SDS011;1068;52.460;13.528;2023-03-04T12:36:16;9.17;;;2.60;;
2123;SDS011;1068;52.460;13.528;2023-03-04T12:38:53;13.80;;;2.67;;
2123;SDS011;1068;52.460;13.528;2023-03-04T12:41:26;9.70;;;2.93;;
2123;SDS011;1068;52.460;13.528;2023-03-04T12:43:56;8.67;;;2.73;;
2123;SDS011;1068;52.460;13.528;2023-03-04T12:46:30;9.20;;;3.20;;
2123;SDS011;1068;52.460;13.528;2023-03-04T12:49:11;14.10;;;2.43;;
2123;SDS011;1068;52.460;13.528;2023-03-04T12:51:42;11.73;;;3.30;;
2123;SDS011;1068;52.460;13.528;2023-03-04T12:54:16;14.47;;;3.10;;
2123;SDS011;1068;52.460;13.528;2023-03-04T12:56:49;6.90;;;2.77;;
2123;SDS011;1068;52.460;13.528;2023-03-04T12:59:18;11.80;;;3.83;;
2123;SDS011;1068;52.460;13.528;2023-03-04T13:01:47;11.20;;;2.57;;
2123;SDS011;1068;52.460;13.528;2023-03-04T13:04:18;10.50;;;2.83;;
2123;SDS011;1068;52.460;13.528;2023-03-04T13:06:53;9.80;;;2.77;;
2123;SDS011;1068;52.460;13.528;2023-03-04T13:09:25;13.70;;;2.90;;
2123;SDS011;1068;52.460;13.528;2023-03-04T13:11:54;9.70;;;2.63;;
2123;SDS011;1068;52.460;13.528;2023-03-04T13:14:29;17.20;;;3.70;;
2123;SDS011;1068;52.460;13.528;2023-03-04T13:16:56;11.03;;;2.70;;
2123;SDS011;1068;52.460;13.528;2023-03-04T13:19:42;11.60;;;3.13;;
2123;SDS011;1068;52.460;13.528;2023-03-04T13:22:27;12.43;;;2.40;;
2123;SDS011;1068;52.460;13.528;2023-03-04T13:24:55;13.70;;;2.87;;
2123;SDS011;1068;52.460;13.528;2023-03-04T13:32:50;10.00;;;2.80;;
2123;SDS011;1068;52.460;13.528;2023-03-04T13:38:00;8.83;;;2.30;;
2123;SDS011;1068;52.460;13.528;2023-03-04T13:40:32;7.40;;;2.33;;
2123;SDS011;1068;52.460;13.528;2023-03-04T13:45:41;7.77;;;2.50;;
2123;SDS011;1068;52.460;13.528;2023-03-04T13:48:20;10.00;;;2.30;;
2123;SDS011;1068;52.460;13.528;2023-03-04T13:50:49;10.40;;;4.30;;
2123;SDS011;1068;52.460;13.528;2023-03-04T13:53:25;16.10;;;3.27;;
2123;SDS011;1068;52.460;13.528;2023-03-04T13:58:42;11.13;;;2.60;;
2123;SDS011;1068;52.460;13.528;2023-03-04T14:01:24;8.13;;;2.47;;
2123;SDS011;1068;52.460;13.528;2023-03-04T14:03:52;16.33;;;2.53;;
2123;SDS011;1068;52.460;13.528;2023-03-04T14:06:20;7.80;;;2.20;;
2123;SDS011;1068;52.460;13.528;2023-03-04T14:08:49;6.20;;;2.07;;
2123;SDS011;1068;52.460;13.528;2023-03-04T14:11:18;11.57;;;2.60;;
2123;SDS011;1068;52.460;13.528;2023-03-04T14:13:49;9.23;;;3.13;;
2123;SDS011;1068;52.460;13.528;2023-03-04T14:16:20;8.23;;;2.20;;
2123;SDS011;1068;52.460;13.528;2023-03-04T14:18:55;11.57;;;2.47;;
2123;SDS011;1068;52.460;13.528;2023-03-04T14:21:23;11.03;;;2.50;;
2123;SDS011;1068;52.460;13.528;2023-03-04T14:23:59;15.97;;;3.10;;
2123;SDS011;1068;52.460;13.528;2023-03-04T14:26:26;9.57;;;2.60;;
2123;SDS011;1068;52.460;13.528;2023-03-04T14:28:55;7.23;;;3.00;;
2123;SDS011;1068;52.460;13.528;2023-03-04T14:31:24;10.33;;;2.67;;
2123;SDS011;1068;52.460;13.528;2023-03-04T14:33:53;9.83;;;2.30;;
2123;SDS011;1068;52.460;13.528;2023-03-04T14:36:24;8.10;;;2.77;;
2123;SDS011;1068;52.460;13.528;2023-03-04T14:38:52;8.90;;;2.10;;
2123;SDS011;1068;52.460;13.528;2023-03-04T14:41:22;10.00;;;2.60;;
2123;SDS011;1068;52.460;13.528;2023-03-04T14:43:52;6.90;;;1.93;;
2123;SDS011;1068;52.460;13.528;2023-03-04T14:46:21;6.70;;;1.50;;
2123;SDS011;1068;52.460;13.528;2023-03-04T14:48:49;5.60;;;2.50;;
2123;SDS011;1068;52.460;13.528;2023-03-04T14:51:27;9.40;;;2.13;;
2123;SDS011;1068;52.460;13.528;2023-03-04T14:53:55;3.70;;;1.70;;
2123;SDS011;1068;52.460;13.528;2023-03-04T14:56:27;10.37;;;2.27;;
2123;SDS011;1068;52.460;13.528;2023-03-04T14:58:55;8.17;;;2.13;;
2123;SDS011;1068;52.460;13.528;2023-03-04T15:01:27;12.40;;;2.50;;
2123;SDS011;1068;52.460;13.528;2023-03-04T15:03:55;7.37;;;2.13;;
2123;SDS011;1068;52.460;13.528;2023-03-04T15:06:24;15.90;;;3.23;;
2123;SDS011;1068;52.460;13.528;2023-03-04T15:08:54;8.57;;;2.50;;
2123;SDS011;1068;52.460;13.528;2023-03-04T15:11:23;9.93;;;2.90;;
2123;SDS011;1068;52.460;13.528;2023-03-04T15:13:53;6.90;;;2.23;;
2123;SDS011;1068;52.460;13.528;2023-03-04T15:16:21;5.53;;;2.80;;
2123;SDS011;1068;52.460;13.528;2023-03-04T15:18:52;10.33;;;2.83;;